LEBB Airport Information

Runway Information
Runway 10 Length 6562 ft width 148 ft
Elevation 116 ft Threshold 0 ft Heading 97
Runway 28 Length 6562 ft Width 148 ft
Elevation 129 ft Threshold 0 ft Heading 277
Runway 12 Length 8530 ft width 148 ft
Elevation 119 ft Threshold 0 ft Heading 117
Runway 30 Length 8530 ft Width 148 ft
Elevation 128 ft Threshold 1509 ft Heading 297
Airport Frequencies
Type APP Name APP Frequency 120.7 MHZ
Type ATIS Name ATIS Frequency 118.825 MHZ
Type GND Name GND Frequency 121.7 MHZ
Type TWR Name TWR Frequency 118.5 MHZ
Airport Navaids
Type VOR-DME Name Bilbao Frequency 115900 KHZ
Airport Weather Information & NOTAM
ADDS - METARS form results

(0616 UTC 19 July 2019)
Data provider http://aviationweather.gov/metar/data/
 
METAR text: LEBB 190600Z 13004KT 080V150 CAVOK 16/15 Q1017 NOSIG
Conditions at: LEBB (BILBAO/SONDICA , ES) observed 0600 UTC 19 July 2019
Temperature: 16.0°C (61°F)
Dewpoint: 15.0°C (59°F) [RH = 94%]
Pressure (altimeter): 30.03 inches Hg (1017.0 mb)
Winds: from the SE (130 degrees) at 5 MPH (4 knots; 2.1 m/s)
Visibility: 6 or more miles (10+ km)
Ceiling: ceiling and visibility are OK
Clouds: unknown
Weather: no significant weather observed at this time

METAR text: LEBB 190530Z VRB02KT CAVOK 15/14 Q1018 NOSIG
Conditions at: LEBB (BILBAO/SONDICA , ES) observed 0530 UTC 19 July 2019
Temperature: 15.0°C (59°F)
Dewpoint: 14.0°C (57°F) [RH = 94%]
Pressure (altimeter): 30.06 inches Hg (1018.0 mb)
Winds: variable direction winds at 2 MPH (2 knots; 1.0 m/s)
Visibility: 6 or more miles (10+ km)
Ceiling: ceiling and visibility are OK
Clouds: unknown
Weather: no significant weather observed at this time

Forecast for: LEBB (BILBAO/SONDICA , ES)
Text: TAF LEBB 190500Z 1906/2006 11003KT CAVOK TX29/1915Z TN14/1906Z
Forecast period: 0600 UTC 19 July 2019 to 0600 UTC 20 July 2019
Forecast type: FROM: standard forecast or significant change
Winds: from the ESE (110 degrees) at 3 MPH (3 knots; 1.5 m/s)
Visibility: 6 or more miles 10+ km)
Ceiling: unknown
Clouds: missing
Weather: no significant weather forecast for this period
Text: PROB40
Forecast period: 1200 to 1800 UTC 19 July 2019
Forecast type: TEMPORARY: The following changes expected for less than half the time period
Winds: from the NE (50 degrees) at 12 MPH (10 knots; 5.1 m/s)
Visibility: missing
Ceiling: unknown
Clouds: missing
Weather: no significant weather forecast for this period
Text: TEMPO 1912/1918 05010KT
Forecast period: 1700 UTC 19 July 2019 to 0000 UTC 20 July 2019
Forecast type: TEMPORARY: The following changes expected for less than half the time period
Winds: from the NW (310 degrees) at 12 MPH (10 knots; 5.1 m/s)
Visibility: missing
Ceiling: unknown
Clouds: missing
Weather: no significant weather forecast for this period